sensor_id;sensor_type;location;lat;lon;timestamp;temperature;humidity
23629;DHT22;11991;57.150;-2.134;2022-08-18T00:01:35;13.80;99.90
23629;DHT22;11991;57.150;-2.134;2022-08-18T00:04:05;13.80;99.90
23629;DHT22;11991;57.150;-2.134;2022-08-18T00:06:52;13.80;99.90
23629;DHT22;11991;57.150;-2.134;2022-08-18T00:09:20;13.80;99.90
23629;DHT22;11991;57.150;-2.134;2022-08-18T00:11:47;13.80;99.90
23629;DHT22;11991;57.150;-2.134;2022-08-18T00:14:17;13.70;99.90
23629;DHT22;11991;57.150;-2.134;2022-08-18T00:16:51;13.70;99.90
23629;DHT22;11991;57.150;-2.134;2022-08-18T00:19:19;13.70;99.90
23629;DHT22;11991;57.150;-2.134;2022-08-18T00:22:07;13.70;99.90
23629;DHT22;11991;57.150;-2.134;2022-08-18T00:24:41;13.80;99.90
23629;DHT22;11991;57.150;-2.134;2022-08-18T00:27:21;13.80;99.90
23629;DHT22;11991;57.150;-2.134;2022-08-18T00:29:56;13.80;99.90
23629;DHT22;11991;57.150;-2.134;2022-08-18T00:32:33;13.70;99.90
23629;DHT22;11991;57.150;-2.134;2022-08-18T00:35:19;13.70;99.90
23629;DHT22;11991;57.150;-2.134;2022-08-18T00:37:47;13.60;99.90
23629;DHT22;11991;57.150;-2.134;2022-08-18T00:40:19;13.60;99.90
23629;DHT22;11991;57.150;-2.134;2022-08-18T00:42:55;13.60;99.90
23629;DHT22;11991;57.150;-2.134;2022-08-18T00:45:31;13.60;99.90
23629;DHT22;11991;57.150;-2.134;2022-08-18T00:47:59;13.60;99.90
23629;DHT22;11991;57.150;-2.134;2022-08-18T00:50:32;13.60;99.90
23629;DHT22;11991;57.150;-2.134;2022-08-18T00:53:26;13.60;99.90
23629;DHT22;11991;57.150;-2.134;2022-08-18T00:55:59;13.60;99.90
23629;DHT22;11991;57.150;-2.134;2022-08-18T00:58:37;13.60;99.90
23629;DHT22;11991;57.150;-2.134;2022-08-18T01:01:07;13.60;99.90
23629;DHT22;11991;57.150;-2.134;2022-08-18T01:03:36;13.60;99.90
23629;DHT22;11991;57.150;-2.134;2022-08-18T01:06:20;13.60;99.90
23629;DHT22;11991;57.150;-2.134;2022-08-18T01:08:49;13.50;99.90
23629;DHT22;11991;57.150;-2.134;2022-08-18T01:11:17;13.50;99.90
23629;DHT22;11991;57.150;-2.134;2022-08-18T01:13:44;13.50;99.90
23629;DHT22;11991;57.150;-2.134;2022-08-18T01:16:11;13.50;99.90
23629;DHT22;11991;57.150;-2.134;2022-08-18T01:18:58;13.50;99.90
23629;DHT22;11991;57.150;-2.134;2022-08-18T01:21:48;13.50;99.90
23629;DHT22;11991;57.150;-2.134;2022-08-18T01:24:24;13.60;99.90
23629;DHT22;11991;57.150;-2.134;2022-08-18T01:27:14;13.60;99.90
23629;DHT22;11991;57.150;-2.134;2022-08-18T01:29:45;13.60;99.90
23629;DHT22;11991;57.150;-2.134;2022-08-18T01:32:21;13.60;99.90
23629;DHT22;11991;57.150;-2.134;2022-08-18T01:34:51;13.60;99.90
23629;DHT22;11991;57.150;-2.134;2022-08-18T01:37:21;13.50;99.90
23629;DHT22;11991;57.150;-2.134;2022-08-18T01:39:49;13.60;99.90
23629;DHT22;11991;57.150;-2.134;2022-08-18T01:42:37;13.60;99.90
23629;DHT22;11991;57.150;-2.134;2022-08-18T01:45:06;13.60;99.90
23629;DHT22;11991;57.150;-2.134;2022-08-18T01:47:35;13.60;99.90
23629;DHT22;11991;57.150;-2.134;2022-08-18T01:50:15;13.60;99.90
23629;DHT22;11991;57.150;-2.134;2022-08-18T01:52:43;13.60;99.90
23629;DHT22;11991;57.150;-2.134;2022-08-18T01:55:10;13.60;99.90
23629;DHT22;11991;57.150;-2.134;2022-08-18T01:57:40;13.60;99.90
23629;DHT22;11991;57.150;-2.134;2022-08-18T02:00:14;13.60;99.90
23629;DHT22;11991;57.150;-2.134;2022-08-18T02:02:42;13.60;99.90
23629;DHT22;11991;57.150;-2.134;2022-08-18T02:05:13;13.60;99.90
23629;DHT22;11991;57.150;-2.134;2022-08-18T02:07:41;13.60;99.90
23629;DHT22;11991;57.150;-2.134;2022-08-18T02:10:11;13.60;99.90
23629;DHT22;11991;57.150;-2.134;2022-08-18T02:12:43;13.60;99.90
23629;DHT22;11991;57.150;-2.134;2022-08-18T02:15:11;13.70;99.90
23629;DHT22;11991;57.150;-2.134;2022-08-18T02:17:40;13.70;99.90
23629;DHT22;11991;57.150;-2.134;2022-08-18T02:20:10;13.70;99.90
23629;DHT22;11991;57.150;-2.134;2022-08-18T02:22:38;13.70;99.90
23629;DHT22;11991;57.150;-2.134;2022-08-18T02:25:06;13.80;99.90
23629;DHT22;11991;57.150;-2.134;2022-08-18T02:27:33;13.80;99.90
23629;DHT22;11991;57.150;-2.134;2022-08-18T02:30:04;13.80;99.90
23629;DHT22;11991;57.150;-2.134;2022-08-18T02:32:32;13.80;99.90
23629;DHT22;11991;57.150;-2.134;2022-08-18T02:35:00;13.80;99.90
23629;DHT22;11991;57.150;-2.134;2022-08-18T02:37:32;13.80;99.90
23629;DHT22;11991;57.150;-2.134;2022-08-18T02:39:59;13.80;99.90
23629;DHT22;11991;57.150;-2.134;2022-08-18T02:42:27;13.80;99.90
23629;DHT22;11991;57.150;-2.134;2022-08-18T02:44:56;13.80;99.90
23629;DHT22;11991;57.150;-2.134;2022-08-18T02:47:24;13.80;99.90
23629;DHT22;11991;57.150;-2.134;2022-08-18T02:49:56;13.80;99.90
23629;DHT22;11991;57.150;-2.134;2022-08-18T02:52:23;13.80;99.90
23629;DHT22;11991;57.150;-2.134;2022-08-18T02:54:59;13.80;99.90
23629;DHT22;11991;57.150;-2.134;2022-08-18T02:57:30;13.70;99.90
23629;DHT22;11991;57.150;-2.134;2022-08-18T02:59:59;13.70;99.90
23629;DHT22;11991;57.150;-2.134;2022-08-18T03:02:26;13.70;99.90
23629;DHT22;11991;57.150;-2.134;2022-08-18T03:04:53;13.70;99.90
23629;DHT22;11991;57.150;-2.134;2022-08-18T03:07:21;13.70;99.90
23629;DHT22;11991;57.150;-2.134;2022-08-18T03:09:48;13.60;99.90
23629;DHT22;11991;57.150;-2.134;2022-08-18T03:12:16;13.60;99.90
23629;DHT22;11991;57.150;-2.134;2022-08-18T03:14:43;13.60;99.90
23629;DHT22;11991;57.150;-2.134;2022-08-18T03:17:12;13.60;99.90
23629;DHT22;11991;57.150;-2.134;2022-08-18T03:19:41;13.60;99.90
23629;DHT22;11991;57.150;-2.134;2022-08-18T03:22:13;13.60;99.90
23629;DHT22;11991;57.150;-2.134;2022-08-18T03:24:56;13.50;99.90
23629;DHT22;11991;57.150;-2.134;2022-08-18T03:27:24;13.50;99.90
23629;DHT22;11991;57.150;-2.134;2022-08-18T03:29:52;13.50;99.90
23629;DHT22;11991;57.150;-2.134;2022-08-18T03:32:19;13.60;99.90
23629;DHT22;11991;57.150;-2.134;2022-08-18T03:34:47;13.50;99.90
23629;DHT22;11991;57.150;-2.134;2022-08-18T03:37:14;13.60;99.90
23629;DHT22;11991;57.150;-2.134;2022-08-18T03:39:42;13.60;99.90
23629;DHT22;11991;57.150;-2.134;2022-08-18T03:42:09;13.60;99.90
23629;DHT22;11991;57.150;-2.134;2022-08-18T03:44:36;13.60;99.90
23629;DHT22;11991;57.150;-2.134;2022-08-18T03:47:10;13.60;99.90
23629;DHT22;11991;57.150;-2.134;2022-08-18T03:49:37;13.60;99.90
23629;DHT22;11991;57.150;-2.134;2022-08-18T03:52:08;13.70;99.90
23629;DHT22;11991;57.150;-2.134;2022-08-18T03:54:36;13.70;99.90
23629;DHT22;11991;57.150;-2.134;2022-08-18T03:57:09;13.70;99.90
23629;DHT22;11991;57.150;-2.134;2022-08-18T03:59:37;13.70;99.90
23629;DHT22;11991;57.150;-2.134;2022-08-18T04:02:08;13.70;99.90
23629;DHT22;11991;57.150;-2.134;2022-08-18T04:04:35;13.70;99.90
23629;DHT22;11991;57.150;-2.134;2022-08-18T04:07:10;13.70;99.90
23629;DHT22;11991;57.150;-2.134;2022-08-18T04:09:40;13.70;99.90
23629;DHT22;11991;57.150;-2.134;2022-08-18T04:12:14;13.80;99.90
23629;DHT22;11991;57.150;-2.134;2022-08-18T04:14:45;13.70;99.90
23629;DHT22;11991;57.150;-2.134;2022-08-18T04:17:19;13.70;99.90
23629;DHT22;11991;57.150;-2.134;2022-08-18T04:19:52;13.80;99.90
23629;DHT22;11991;57.150;-2.134;2022-08-18T04:22:20;13.80;99.90
23629;DHT22;11991;57.150;-2.134;2022-08-18T04:24:48;13.80;99.90
23629;DHT22;11991;57.150;-2.134;2022-08-18T04:27:20;13.80;99.90
23629;DHT22;11991;57.150;-2.134;2022-08-18T04:29:48;13.80;99.90
23629;DHT22;11991;57.150;-2.134;2022-08-18T04:32:16;13.80;99.90
23629;DHT22;11991;57.150;-2.134;2022-08-18T04:34:43;13.80;99.90
23629;DHT22;11991;57.150;-2.134;2022-08-18T04:37:11;13.90;99.90
23629;DHT22;11991;57.150;-2.134;2022-08-18T04:39:39;13.90;99.90
23629;DHT22;11991;57.150;-2.134;2022-08-18T04:42:07;13.90;99.90
23629;DHT22;11991;57.150;-2.134;2022-08-18T04:44:34;13.90;99.90
23629;DHT22;11991;57.150;-2.134;2022-08-18T04:47:04;13.90;99.90
23629;DHT22;11991;57.150;-2.134;2022-08-18T04:49:35;13.90;99.90
23629;DHT22;11991;57.150;-2.134;2022-08-18T04:52:05;13.90;99.90
23629;DHT22;11991;57.150;-2.134;2022-08-18T04:55:08;13.90;99.90
23629;DHT22;11991;57.150;-2.134;2022-08-18T04:57:35;13.90;99.90
23629;DHT22;11991;57.150;-2.134;2022-08-18T05:00:04;13.90;99.90
23629;DHT22;11991;57.150;-2.134;2022-08-18T05:02:32;13.90;99.90
23629;DHT22;11991;57.150;-2.134;2022-08-18T05:05:00;13.90;99.90
23629;DHT22;11991;57.150;-2.134;2022-08-18T05:07:30;13.90;99.90
23629;DHT22;11991;57.150;-2.134;2022-08-18T05:09:57;13.90;99.90
23629;DHT22;11991;57.150;-2.134;2022-08-18T05:12:24;14.00;99.90
23629;DHT22;11991;57.150;-2.134;2022-08-18T05:14:53;14.00;99.90
23629;DHT22;11991;57.150;-2.134;2022-08-18T05:17:23;14.00;99.90
23629;DHT22;11991;57.150;-2.134;2022-08-18T05:19:59;14.00;99.90
23629;DHT22;11991;57.150;-2.134;2022-08-18T05:22:29;14.00;99.90
23629;DHT22;11991;57.150;-2.134;2022-08-18T05:24:58;14.10;99.90
23629;DHT22;11991;57.150;-2.134;2022-08-18T05:27:31;14.10;99.90
23629;DHT22;11991;57.150;-2.134;2022-08-18T05:29:59;14.10;99.90
23629;DHT22;11991;57.150;-2.134;2022-08-18T05:32:26;14.10;99.90
23629;DHT22;11991;57.150;-2.134;2022-08-18T05:35:19;14.10;99.90
23629;DHT22;11991;57.150;-2.134;2022-08-18T05:38:01;14.10;99.90
23629;DHT22;11991;57.150;-2.134;2022-08-18T05:40:30;14.20;99.90
23629;DHT22;11991;57.150;-2.134;2022-08-18T05:42:58;14.10;99.90
23629;DHT22;11991;57.150;-2.134;2022-08-18T05:45:26;14.20;99.90
23629;DHT22;11991;57.150;-2.134;2022-08-18T05:47:58;14.20;99.90
23629;DHT22;11991;57.150;-2.134;2022-08-18T05:50:27;14.10;99.90
23629;DHT22;11991;57.150;-2.134;2022-08-18T05:53:03;14.20;99.90
23629;DHT22;11991;57.150;-2.134;2022-08-18T05:56:01;14.20;99.90
23629;DHT22;11991;57.150;-2.134;2022-08-18T05:58:50;14.20;99.90
23629;DHT22;11991;57.150;-2.134;2022-08-18T06:01:23;14.20;99.90
23629;DHT22;11991;57.150;-2.134;2022-08-18T06:03:56;14.20;99.90
23629;DHT22;11991;57.150;-2.134;2022-08-18T06:06:27;14.10;99.90
23629;DHT22;11991;57.150;-2.134;2022-08-18T06:09:18;14.20;99.90
23629;DHT22;11991;57.150;-2.134;2022-08-18T06:11:50;14.20;99.90
23629;DHT22;11991;57.150;-2.134;2022-08-18T06:14:19;14.20;99.90
23629;DHT22;11991;57.150;-2.134;2022-08-18T06:19:51;14.20;99.90
23629;DHT22;11991;57.150;-2.134;2022-08-18T06:26:02;14.30;99.90
23629;DHT22;11991;57.150;-2.134;2022-08-18T06:28:48;14.30;99.90
23629;DHT22;11991;57.150;-2.134;2022-08-18T06:37:12;14.40;99.90
23629;DHT22;11991;57.150;-2.134;2022-08-18T06:39:46;14.40;99.90
23629;DHT22;11991;57.150;-2.134;2022-08-18T06:42:23;14.50;99.90
23629;DHT22;11991;57.150;-2.134;2022-08-18T06:45:05;14.50;99.90
23629;DHT22;11991;57.150;-2.134;2022-08-18T06:48:39;14.50;99.90
23629;DHT22;11991;57.150;-2.134;2022-08-18T06:50:51;14.50;99.90
23629;DHT22;11991;57.150;-2.134;2022-08-18T06:53:19;14.50;99.90
23629;DHT22;11991;57.150;-2.134;2022-08-18T06:55:54;14.50;99.90
23629;DHT22;11991;57.150;-2.134;2022-08-18T06:58:28;14.50;99.90
23629;DHT22;11991;57.150;-2.134;2022-08-18T07:01:03;14.60;99.90
23629;DHT22;11991;57.150;-2.134;2022-08-18T07:08:53;14.60;99.90
23629;DHT22;11991;57.150;-2.134;2022-08-18T07:11:32;14.60;99.90
23629;DHT22;11991;57.150;-2.134;2022-08-18T07:14:20;14.60;99.90
23629;DHT22;11991;57.150;-2.134;2022-08-18T07:16:48;14.60;99.90
23629;DHT22;11991;57.150;-2.134;2022-08-18T07:19:29;14.60;99.90
23629;DHT22;11991;57.150;-2.134;2022-08-18T07:24:30;14.60;99.90
23629;DHT22;11991;57.150;-2.134;2022-08-18T07:27:06;14.60;99.90
23629;DHT22;11991;57.150;-2.134;2022-08-18T07:29:38;14.60;99.90
23629;DHT22;11991;57.150;-2.134;2022-08-18T07:32:17;14.60;99.90
23629;DHT22;11991;57.150;-2.134;2022-08-18T07:34:52;14.60;99.90
23629;DHT22;11991;57.150;-2.134;2022-08-18T07:37:33;14.60;99.90
23629;DHT22;11991;57.150;-2.134;2022-08-18T07:40:31;14.60;99.90
23629;DHT22;11991;57.150;-2.134;2022-08-18T07:43:05;14.60;99.90
23629;DHT22;11991;57.150;-2.134;2022-08-18T07:45:45;14.60;99.90
23629;DHT22;11991;57.150;-2.134;2022-08-18T07:48:20;14.70;99.90
23629;DHT22;11991;57.150;-2.134;2022-08-18T07:54:01;14.70;99.90
23629;DHT22;11991;57.150;-2.134;2022-08-18T08:05:06;14.70;99.90
23629;DHT22;11991;57.150;-2.134;2022-08-18T08:13:23;14.70;99.90
23629;DHT22;11991;57.150;-2.134;2022-08-18T08:18:53;14.70;99.90
23629;DHT22;11991;57.150;-2.134;2022-08-18T08:21:32;14.70;99.90
23629;DHT22;11991;57.150;-2.134;2022-08-18T08:31:59;14.80;99.90
23629;DHT22;11991;57.150;-2.134;2022-08-18T08:34:38;14.80;99.90
23629;DHT22;11991;57.150;-2.134;2022-08-18T08:37:13;14.90;99.90
23629;DHT22;11991;57.150;-2.134;2022-08-18T08:39:52;14.90;99.90
23629;DHT22;11991;57.150;-2.134;2022-08-18T08:42:51;14.90;99.90
23629;DHT22;11991;57.150;-2.134;2022-08-18T08:50:42;15.00;99.90
23629;DHT22;11991;57.150;-2.134;2022-08-18T08:53:23;15.00;99.90
23629;DHT22;11991;57.150;-2.134;2022-08-18T08:55:56;15.10;99.90
23629;DHT22;11991;57.150;-2.134;2022-08-18T09:01:01;15.00;99.90
23629;DHT22;11991;57.150;-2.134;2022-08-18T09:03:49;15.10;99.90
23629;DHT22;11991;57.150;-2.134;2022-08-18T09:15:33;15.20;99.90
23629;DHT22;11991;57.150;-2.134;2022-08-18T09:23:32;15.30;99.90
23629;DHT22;11991;57.150;-2.134;2022-08-18T09:31:45;15.30;99.90
23629;DHT22;11991;57.150;-2.134;2022-08-18T09:34:31;15.30;99.90
23629;DHT22;11991;57.150;-2.134;2022-08-18T09:37:08;15.30;99.90
23629;DHT22;11991;57.150;-2.134;2022-08-18T09:40:12;15.30;99.90
23629;DHT22;11991;57.150;-2.134;2022-08-18T09:43:28;15.40;99.90
23629;DHT22;11991;57.150;-2.134;2022-08-18T09:45:59;15.40;99.90
23629;DHT22;11991;57.150;-2.134;2022-08-18T09:48:38;15.40;99.90
23629;DHT22;11991;57.150;-2.134;2022-08-18T09:51:36;15.40;99.90
23629;DHT22;11991;57.150;-2.134;2022-08-18T09:54:11;15.50;99.90
23629;DHT22;11991;57.150;-2.134;2022-08-18T10:05:28;15.50;99.90
23629;DHT22;11991;57.150;-2.134;2022-08-18T10:14:24;15.60;99.90
23629;DHT22;11991;57.150;-2.134;2022-08-18T10:17:24;15.70;99.90
23629;DHT22;11991;57.150;-2.134;2022-08-18T10:20:46;15.80;99.90
23629;DHT22;11991;57.150;-2.134;2022-08-18T10:22:54;15.80;99.90
23629;DHT22;11991;57.150;-2.134;2022-08-18T10:25:39;15.90;99.90
23629;DHT22;11991;57.150;-2.134;2022-08-18T10:31:17;15.90;99.90
23629;DHT22;11991;57.150;-2.134;2022-08-18T10:34:11;16.00;99.90
23629;DHT22;11991;57.150;-2.134;2022-08-18T10:36:57;16.00;99.90
23629;DHT22;11991;57.150;-2.134;2022-08-18T10:42:31;16.20;99.90
23629;DHT22;11991;57.150;-2.134;2022-08-18T10:45:11;16.30;99.90
23629;DHT22;11991;57.150;-2.134;2022-08-18T10:48:07;16.40;99.90
23629;DHT22;11991;57.150;-2.134;2022-08-18T10:56:37;16.50;99.90
23629;DHT22;11991;57.150;-2.134;2022-08-18T11:05:10;16.50;99.90
23629;DHT22;11991;57.150;-2.134;2022-08-18T11:07:39;16.50;99.90
23629;DHT22;11991;57.150;-2.134;2022-08-18T11:10:22;16.50;99.90
23629;DHT22;11991;57.150;-2.134;2022-08-18T11:13:27;16.50;99.90
23629;DHT22;11991;57.150;-2.134;2022-08-18T11:16:10;16.50;99.90
23629;DHT22;11991;57.150;-2.134;2022-08-18T11:18:43;16.50;99.90
23629;DHT22;11991;57.150;-2.134;2022-08-18T11:21:38;16.50;99.90
23629;DHT22;11991;57.150;-2.134;2022-08-18T11:24:28;16.40;99.90
23629;DHT22;11991;57.150;-2.134;2022-08-18T11:27:02;16.50;99.90
23629;DHT22;11991;57.150;-2.134;2022-08-18T11:29:41;16.40;99.90
23629;DHT22;11991;57.150;-2.134;2022-08-18T11:32:30;16.40;99.90
23629;DHT22;11991;57.150;-2.134;2022-08-18T11:40:32;16.50;99.90
23629;DHT22;11991;57.150;-2.134;2022-08-18T11:43:27;16.50;99.90
23629;DHT22;11991;57.150;-2.134;2022-08-18T11:46:35;16.50;99.90
23629;DHT22;11991;57.150;-2.134;2022-08-18T11:49:18;16.50;99.90
23629;DHT22;11991;57.150;-2.134;2022-08-18T11:52:18;16.50;99.90
23629;DHT22;11991;57.150;-2.134;2022-08-18T11:55:04;16.50;99.90
23629;DHT22;11991;57.150;-2.134;2022-08-18T11:57:53;16.60;99.90
23629;DHT22;11991;57.150;-2.134;2022-08-18T12:03:42;16.60;99.90
23629;DHT22;11991;57.150;-2.134;2022-08-18T12:06:19;16.60;99.90
23629;DHT22;11991;57.150;-2.134;2022-08-18T12:09:03;16.60;99.90
23629;DHT22;11991;57.150;-2.134;2022-08-18T12:11:34;16.50;99.90
23629;DHT22;11991;57.150;-2.134;2022-08-18T12:14:15;16.60;99.90
23629;DHT22;11991;57.150;-2.134;2022-08-18T12:17:01;16.60;99.90
23629;DHT22;11991;57.150;-2.134;2022-08-18T12:19:28;16.50;99.90
23629;DHT22;11991;57.150;-2.134;2022-08-18T12:22:01;16.50;99.90
23629;DHT22;11991;57.150;-2.134;2022-08-18T12:24:40;16.50;99.90
23629;DHT22;11991;57.150;-2.134;2022-08-18T12:27:09;16.40;99.90
23629;DHT22;11991;57.150;-2.134;2022-08-18T12:29:49;16.40;99.90
23629;DHT22;11991;57.150;-2.134;2022-08-18T12:32:16;16.40;99.90
23629;DHT22;11991;57.150;-2.134;2022-08-18T12:35:06;16.40;99.90
23629;DHT22;11991;57.150;-2.134;2022-08-18T12:37:36;16.30;99.90
23629;DHT22;11991;57.150;-2.134;2022-08-18T12:40:24;16.30;99.90
23629;DHT22;11991;57.150;-2.134;2022-08-18T12:42:52;16.20;99.90
23629;DHT22;11991;57.150;-2.134;2022-08-18T12:45:22;16.20;99.90
23629;DHT22;11991;57.150;-2.134;2022-08-18T12:47:53;16.10;99.90
23629;DHT22;11991;57.150;-2.134;2022-08-18T12:50:20;16.10;99.90
23629;DHT22;11991;57.150;-2.134;2022-08-18T12:52:59;16.10;99.90
23629;DHT22;11991;57.150;-2.134;2022-08-18T12:55:29;16.20;99.90
23629;DHT22;11991;57.150;-2.134;2022-08-18T12:57:57;16.10;99.90
23629;DHT22;11991;57.150;-2.134;2022-08-18T13:00:25;16.20;99.90
23629;DHT22;11991;57.150;-2.134;2022-08-18T13:03:12;16.20;99.90
23629;DHT22;11991;57.150;-2.134;2022-08-18T13:05:40;16.20;99.90
23629;DHT22;11991;57.150;-2.134;2022-08-18T13:08:15;16.20;99.90
23629;DHT22;11991;57.150;-2.134;2022-08-18T13:10:59;16.20;99.90
23629;DHT22;11991;57.150;-2.134;2022-08-18T13:13:47;16.30;99.90
23629;DHT22;11991;57.150;-2.134;2022-08-18T13:16:22;16.30;99.90
23629;DHT22;11991;57.150;-2.134;2022-08-18T13:18:57;16.30;99.90
23629;DHT22;11991;57.150;-2.134;2022-08-18T13:21:25;16.30;99.90
23629;DHT22;11991;57.150;-2.134;2022-08-18T13:24:05;16.30;99.90
23629;DHT22;11991;57.150;-2.134;2022-08-18T13:26:38;16.40;99.90
23629;DHT22;11991;57.150;-2.134;2022-08-18T13:29:08;16.50;99.90
23629;DHT22;11991;57.150;-2.134;2022-08-18T13:31:37;16.50;99.90
23629;DHT22;11991;57.150;-2.134;2022-08-18T13:34:04;16.50;99.90
23629;DHT22;11991;57.150;-2.134;2022-08-18T13:36:41;16.60;99.90
23629;DHT22;11991;57.150;-2.134;2022-08-18T13:39:17;16.70;99.90
23629;DHT22;11991;57.150;-2.134;2022-08-18T13:41:46;16.70;99.90
23629;DHT22;11991;57.150;-2.134;2022-08-18T13:44:15;16.80;99.90
23629;DHT22;11991;57.150;-2.134;2022-08-18T13:46:47;16.80;99.90
23629;DHT22;11991;57.150;-2.134;2022-08-18T13:49:16;16.90;99.90
23629;DHT22;11991;57.150;-2.134;2022-08-18T13:51:51;16.90;99.90
23629;DHT22;11991;57.150;-2.134;2022-08-18T13:54:23;16.90;99.90
23629;DHT22;11991;57.150;-2.134;2022-08-18T13:56:57;16.90;99.90
23629;DHT22;11991;57.150;-2.134;2022-08-18T13:59:26;16.80;99.90
23629;DHT22;11991;57.150;-2.134;2022-08-18T14:02:00;16.80;99.90
23629;DHT22;11991;57.150;-2.134;2022-08-18T14:04:28;16.80;99.90
23629;DHT22;11991;57.150;-2.134;2022-08-18T14:06:56;16.80;99.90
23629;DHT22;11991;57.150;-2.134;2022-08-18T14:09:28;16.80;99.90
23629;DHT22;11991;57.150;-2.134;2022-08-18T14:12:21;16.80;99.90
23629;DHT22;11991;57.150;-2.134;2022-08-18T14:14:55;16.90;99.90
23629;DHT22;11991;57.150;-2.134;2022-08-18T14:17:24;16.90;99.90
23629;DHT22;11991;57.150;-2.134;2022-08-18T14:19:53;17.00;99.90
23629;DHT22;11991;57.150;-2.134;2022-08-18T14:22:50;17.00;99.90
23629;DHT22;11991;57.150;-2.134;2022-08-18T14:25:36;17.10;99.90
23629;DHT22;11991;57.150;-2.134;2022-08-18T14:28:26;17.20;99.90
23629;DHT22;11991;57.150;-2.134;2022-08-18T14:30:58;17.20;99.90
23629;DHT22;11991;57.150;-2.134;2022-08-18T14:33:28;17.30;99.90
23629;DHT22;11991;57.150;-2.134;2022-08-18T14:36:16;17.40;99.90
23629;DHT22;11991;57.150;-2.134;2022-08-18T14:38:44;17.60;99.90
23629;DHT22;11991;57.150;-2.134;2022-08-18T14:41:12;17.70;99.90
23629;DHT22;11991;57.150;-2.134;2022-08-18T14:43:41;17.70;99.90
23629;DHT22;11991;57.150;-2.134;2022-08-18T14:46:31;17.70;99.90
23629;DHT22;11991;57.150;-2.134;2022-08-18T14:48:59;17.70;99.90
23629;DHT22;11991;57.150;-2.134;2022-08-18T14:51:31;17.70;99.90
23629;DHT22;11991;57.150;-2.134;2022-08-18T14:54:00;17.70;99.90
23629;DHT22;11991;57.150;-2.134;2022-08-18T14:56:28;17.70;99.90
23629;DHT22;11991;57.150;-2.134;2022-08-18T14:58:59;17.60;99.90
23629;DHT22;11991;57.150;-2.134;2022-08-18T15:01:28;17.50;99.90
23629;DHT22;11991;57.150;-2.134;2022-08-18T15:04:01;17.50;99.90
23629;DHT22;11991;57.150;-2.134;2022-08-18T15:06:46;17.50;99.90
23629;DHT22;11991;57.150;-2.134;2022-08-18T15:09:26;17.50;99.90
23629;DHT22;11991;57.150;-2.134;2022-08-18T15:11:57;17.50;99.90
23629;DHT22;11991;57.150;-2.134;2022-08-18T15:14:30;17.50;99.90
23629;DHT22;11991;57.150;-2.134;2022-08-18T15:17:01;17.50;99.90
23629;DHT22;11991;57.150;-2.134;2022-08-18T15:19:39;17.60;99.90
23629;DHT22;11991;57.150;-2.134;2022-08-18T15:22:26;17.60;99.90
23629;DHT22;11991;57.150;-2.134;2022-08-18T15:25:14;17.70;99.90
23629;DHT22;11991;57.150;-2.134;2022-08-18T15:28:00;17.80;99.90
23629;DHT22;11991;57.150;-2.134;2022-08-18T15:30:28;17.90;99.90
23629;DHT22;11991;57.150;-2.134;2022-08-18T15:32:55;18.00;99.90
23629;DHT22;11991;57.150;-2.134;2022-08-18T15:35:24;18.00;99.90
23629;DHT22;11991;57.150;-2.134;2022-08-18T15:37:53;18.10;99.90
23629;DHT22;11991;57.150;-2.134;2022-08-18T15:40:23;18.10;99.90
23629;DHT22;11991;57.150;-2.134;2022-08-18T15:42:59;18.10;99.90
23629;DHT22;11991;57.150;-2.134;2022-08-18T15:45:34;18.10;99.90
23629;DHT22;11991;57.150;-2.134;2022-08-18T15:48:09;18.10;99.90
23629;DHT22;11991;57.150;-2.134;2022-08-18T15:50:38;18.10;99.90
23629;DHT22;11991;57.150;-2.134;2022-08-18T15:53:10;18.10;99.90
23629;DHT22;11991;57.150;-2.134;2022-08-18T15:55:39;18.10;99.90
23629;DHT22;11991;57.150;-2.134;2022-08-18T15:58:11;18.10;99.90
23629;DHT22;11991;57.150;-2.134;2022-08-18T16:00:41;18.20;99.90
23629;DHT22;11991;57.150;-2.134;2022-08-18T16:03:12;18.30;99.90
23629;DHT22;11991;57.150;-2.134;2022-08-18T16:05:47;18.20;99.90
23629;DHT22;11991;57.150;-2.134;2022-08-18T16:08:21;18.30;99.90
23629;DHT22;11991;57.150;-2.134;2022-08-18T16:10:50;18.40;99.90
23629;DHT22;11991;57.150;-2.134;2022-08-18T16:13:18;18.40;99.90
23629;DHT22;11991;57.150;-2.134;2022-08-18T16:15:46;18.50;99.90
23629;DHT22;11991;57.150;-2.134;2022-08-18T16:18:18;18.50;99.90
23629;DHT22;11991;57.150;-2.134;2022-08-18T16:20:47;18.60;99.90
23629;DHT22;11991;57.150;-2.134;2022-08-18T16:23:18;18.60;99.90
23629;DHT22;11991;57.150;-2.134;2022-08-18T16:25:46;18.60;99.90
23629;DHT22;11991;57.150;-2.134;2022-08-18T16:28:13;18.60;99.90
23629;DHT22;11991;57.150;-2.134;2022-08-18T16:30:41;18.60;99.90
23629;DHT22;11991;57.150;-2.134;2022-08-18T16:33:08;18.60;99.90
23629;DHT22;11991;57.150;-2.134;2022-08-18T16:35:35;18.50;99.90
23629;DHT22;11991;57.150;-2.134;2022-08-18T16:38:07;18.50;99.90
23629;DHT22;11991;57.150;-2.134;2022-08-18T16:40:36;18.50;99.90
23629;DHT22;11991;57.150;-2.134;2022-08-18T16:43:03;18.40;99.90
23629;DHT22;11991;57.150;-2.134;2022-08-18T16:45:32;18.30;99.90
23629;DHT22;11991;57.150;-2.134;2022-08-18T16:48:02;18.30;99.90
23629;DHT22;11991;57.150;-2.134;2022-08-18T16:50:29;18.30;99.90
23629;DHT22;11991;57.150;-2.134;2022-08-18T16:52:57;18.40;99.90
23629;DHT22;11991;57.150;-2.134;2022-08-18T16:55:24;18.40;99.90
23629;DHT22;11991;57.150;-2.134;2022-08-18T16:57:52;18.50;99.90
23629;DHT22;11991;57.150;-2.134;2022-08-18T17:00:42;18.60;99.90
23629;DHT22;11991;57.150;-2.134;2022-08-18T17:03:28;18.60;99.90
23629;DHT22;11991;57.150;-2.134;2022-08-18T17:06:17;18.70;99.90
23629;DHT22;11991;57.150;-2.134;2022-08-18T17:08:44;18.60;99.90
23629;DHT22;11991;57.150;-2.134;2022-08-18T17:11:15;18.70;99.90
23629;DHT22;11991;57.150;-2.134;2022-08-18T17:13:43;18.60;99.90
23629;DHT22;11991;57.150;-2.134;2022-08-18T17:16:11;18.60;99.90
23629;DHT22;11991;57.150;-2.134;2022-08-18T17:18:39;18.60;99.90
23629;DHT22;11991;57.150;-2.134;2022-08-18T17:21:09;18.60;99.90
23629;DHT22;11991;57.150;-2.134;2022-08-18T17:23:37;18.50;99.90
23629;DHT22;11991;57.150;-2.134;2022-08-18T17:26:11;18.50;99.90
23629;DHT22;11991;57.150;-2.134;2022-08-18T17:28:50;18.40;99.90
23629;DHT22;11991;57.150;-2.134;2022-08-18T17:31:22;18.40;99.90
23629;DHT22;11991;57.150;-2.134;2022-08-18T17:33:53;18.40;99.90
23629;DHT22;11991;57.150;-2.134;2022-08-18T17:36:28;18.40;99.90
23629;DHT22;11991;57.150;-2.134;2022-08-18T17:38:58;18.40;99.90
23629;DHT22;11991;57.150;-2.134;2022-08-18T17:41:27;18.40;99.90
23629;DHT22;11991;57.150;-2.134;2022-08-18T17:43:56;18.40;99.90
23629;DHT22;11991;57.150;-2.134;2022-08-18T17:46:32;18.30;99.90
23629;DHT22;11991;57.150;-2.134;2022-08-18T17:49:11;18.20;99.90
23629;DHT22;11991;57.150;-2.134;2022-08-18T17:51:47;18.10;99.90
23629;DHT22;11991;57.150;-2.134;2022-08-18T17:54:32;18.10;99.90
23629;DHT22;11991;57.150;-2.134;2022-08-18T17:57:27;18.10;99.90
23629;DHT22;11991;57.150;-2.134;2022-08-18T18:00:06;18.10;99.90